sensor_id;sensor_type;location;lat;lon;timestamp;pressure;altitude;pressure_sealevel;temperature;humidity
43488;BME280;29078;41.932;25.554;2023-09-19T00:01:40;99963.25;;;18.99;50.25
43488;BME280;29078;41.932;25.554;2023-09-19T00:04:06;99968.47;;;18.94;50.75
43488;BME280;29078;41.932;25.554;2023-09-19T00:06:38;99963.63;;;18.84;50.56
43488;BME280;29078;41.932;25.554;2023-09-19T00:09:03;99962.66;;;18.79;50.56
43488;BME280;29078;41.932;25.554;2023-09-19T00:11:28;99966.59;;;18.76;50.92
43488;BME280;29078;41.932;25.554;2023-09-19T00:13:54;99966.81;;;18.75;50.41
43488;BME280;29078;41.932;25.554;2023-09-19T00:16:19;99972.59;;;18.71;50.85
43488;BME280;29078;41.932;25.554;2023-09-19T00:18:45;99962.13;;;18.70;51.09
43488;BME280;29078;41.932;25.554;2023-09-19T00:21:10;99963.59;;;18.66;50.95
43488;BME280;29078;41.932;25.554;2023-09-19T00:23:36;99960.25;;;18.70;50.14
43488;BME280;29078;41.932;25.554;2023-09-19T00:26:01;99961.06;;;18.71;50.56
43488;BME280;29078;41.932;25.554;2023-09-19T00:28:27;99961.91;;;18.71;50.31
43488;BME280;29078;41.932;25.554;2023-09-19T00:30:52;99953.66;;;18.73;50.51
43488;BME280;29078;41.932;25.554;2023-09-19T00:33:20;99944.59;;;18.74;50.43
43488;BME280;29078;41.932;25.554;2023-09-19T00:38:14;99955.44;;;18.79;50.52
43488;BME280;29078;41.932;25.554;2023-09-19T00:40:45;99948.53;;;18.71;50.90
43488;BME280;29078;41.932;25.554;2023-09-19T00:43:10;99963.00;;;18.64;50.80
43488;BME280;29078;41.932;25.554;2023-09-19T00:45:36;99955.19;;;18.62;50.79
43488;BME280;29078;41.932;25.554;2023-09-19T00:48:03;99951.47;;;18.57;50.89
43488;BME280;29078;41.932;25.554;2023-09-19T00:50:36;99954.06;;;18.45;50.41
43488;BME280;29078;41.932;25.554;2023-09-19T00:53:06;99957.81;;;18.37;50.78
43488;BME280;29078;41.932;25.554;2023-09-19T00:55:33;99958.75;;;18.25;51.78
43488;BME280;29078;41.932;25.554;2023-09-19T00:57:59;99950.94;;;18.23;50.98
43488;BME280;29078;41.932;25.554;2023-09-19T01:00:25;99951.97;;;18.22;50.87
43488;BME280;29078;41.932;25.554;2023-09-19T01:02:50;99963.09;;;18.19;51.22
43488;BME280;29078;41.932;25.554;2023-09-19T01:05:16;99959.25;;;18.15;51.25
43488;BME280;29078;41.932;25.554;2023-09-19T01:07:41;99957.81;;;18.13;51.86
43488;BME280;29078;41.932;25.554;2023-09-19T01:10:11;99958.41;;;18.15;51.33
43488;BME280;29078;41.932;25.554;2023-09-19T01:18:21;99955.75;;;18.15;51.40
43488;BME280;29078;41.932;25.554;2023-09-19T01:23:39;99951.06;;;18.10;52.17
43488;BME280;29078;41.932;25.554;2023-09-19T01:26:07;99950.22;;;18.09;51.74
43488;BME280;29078;41.932;25.554;2023-09-19T01:31:19;99955.63;;;18.03;52.37
43488;BME280;29078;41.932;25.554;2023-09-19T01:33:56;99950.88;;;18.05;51.78
43488;BME280;29078;41.932;25.554;2023-09-19T01:36:22;99949.69;;;18.01;52.24
43488;BME280;29078;41.932;25.554;2023-09-19T01:38:49;99952.34;;;18.01;51.78
43488;BME280;29078;41.932;25.554;2023-09-19T01:41:14;99950.13;;;17.98;52.75
43488;BME280;29078;41.932;25.554;2023-09-19T01:43:44;99942.91;;;17.98;52.26
43488;BME280;29078;41.932;25.554;2023-09-19T01:49:00;99946.34;;;18.05;52.89
43488;BME280;29078;41.932;25.554;2023-09-19T01:54:16;99939.22;;;17.99;52.33
43488;BME280;29078;41.932;25.554;2023-09-19T01:59:35;99938.44;;;17.92;53.16
43488;BME280;29078;41.932;25.554;2023-09-19T02:02:01;99945.25;;;17.88;53.33
43488;BME280;29078;41.932;25.554;2023-09-19T02:04:28;99937.44;;;17.87;53.11
43488;BME280;29078;41.932;25.554;2023-09-19T02:06:54;99942.56;;;17.88;53.05
43488;BME280;29078;41.932;25.554;2023-09-19T02:09:20;99931.25;;;17.93;52.85
43488;BME280;29078;41.932;25.554;2023-09-19T02:11:46;99936.75;;;17.98;53.05
43488;BME280;29078;41.932;25.554;2023-09-19T02:14:11;99936.59;;;17.93;52.70
43488;BME280;29078;41.932;25.554;2023-09-19T02:16:36;99932.72;;;17.89;52.96
43488;BME280;29078;41.932;25.554;2023-09-19T02:19:02;99942.19;;;17.85;52.60
43488;BME280;29078;41.932;25.554;2023-09-19T02:21:31;99939.09;;;17.88;52.68
43488;BME280;29078;41.932;25.554;2023-09-19T02:23:56;99935.75;;;17.92;53.11
43488;BME280;29078;41.932;25.554;2023-09-19T02:26:22;99933.31;;;17.91;53.89
43488;BME280;29078;41.932;25.554;2023-09-19T02:28:49;99935.59;;;17.87;53.48
43488;BME280;29078;41.932;25.554;2023-09-19T02:31:15;99931.50;;;17.85;52.85
43488;BME280;29078;41.932;25.554;2023-09-19T02:33:41;99933.97;;;17.79;53.61
43488;BME280;29078;41.932;25.554;2023-09-19T02:36:07;99933.38;;;17.77;53.77
43488;BME280;29078;41.932;25.554;2023-09-19T02:38:33;99929.06;;;17.76;53.88
43488;BME280;29078;41.932;25.554;2023-09-19T02:40:59;99932.13;;;17.80;53.44
43488;BME280;29078;41.932;25.554;2023-09-19T02:43:24;99923.88;;;17.82;53.09
43488;BME280;29078;41.932;25.554;2023-09-19T02:45:49;99925.34;;;17.77;53.14
43488;BME280;29078;41.932;25.554;2023-09-19T02:48:15;99927.63;;;17.74;53.46
43488;BME280;29078;41.932;25.554;2023-09-19T02:50:41;99922.50;;;17.72;53.14
43488;BME280;29078;41.932;25.554;2023-09-19T02:53:07;99918.63;;;17.68;53.12
43488;BME280;29078;41.932;25.554;2023-09-19T02:55:32;99922.34;;;17.67;53.28
43488;BME280;29078;41.932;25.554;2023-09-19T02:57:57;99915.16;;;17.61;53.44
43488;BME280;29078;41.932;25.554;2023-09-19T03:00:23;99920.06;;;17.64;53.69
43488;BME280;29078;41.932;25.554;2023-09-19T03:02:49;99911.25;;;17.64;54.04
43488;BME280;29078;41.932;25.554;2023-09-19T03:05:15;99916.56;;;17.64;53.81
43488;BME280;29078;41.932;25.554;2023-09-19T03:07:40;99912.88;;;17.65;53.89
43488;BME280;29078;41.932;25.554;2023-09-19T03:10:08;99915.34;;;17.66;54.20
43488;BME280;29078;41.932;25.554;2023-09-19T03:12:33;99915.97;;;17.62;54.16
43488;BME280;29078;41.932;25.554;2023-09-19T03:14:59;99916.19;;;17.60;53.04
43488;BME280;29078;41.932;25.554;2023-09-19T03:17:24;99912.94;;;17.52;53.40
43488;BME280;29078;41.932;25.554;2023-09-19T03:19:50;99911.53;;;17.49;54.25
43488;BME280;29078;41.932;25.554;2023-09-19T03:22:15;99906.84;;;17.44;54.88
43488;BME280;29078;41.932;25.554;2023-09-19T03:24:41;99901.53;;;17.38;54.85
43488;BME280;29078;41.932;25.554;2023-09-19T03:27:08;99906.44;;;17.41;53.88
43488;BME280;29078;41.932;25.554;2023-09-19T03:29:34;99906.88;;;17.38;54.83
43488;BME280;29078;41.932;25.554;2023-09-19T03:31:59;99904.84;;;17.33;54.56
43488;BME280;29078;41.932;25.554;2023-09-19T03:34:24;99909.78;;;17.30;54.39
43488;BME280;29078;41.932;25.554;2023-09-19T03:36:49;99918.81;;;17.29;53.86
43488;BME280;29078;41.932;25.554;2023-09-19T03:39:15;99907.75;;;17.25;54.29
43488;BME280;29078;41.932;25.554;2023-09-19T03:41:41;99914.34;;;17.23;54.42
43488;BME280;29078;41.932;25.554;2023-09-19T03:44:06;99911.06;;;17.21;55.07
43488;BME280;29078;41.932;25.554;2023-09-19T03:46:32;99919.06;;;17.21;54.20
43488;BME280;29078;41.932;25.554;2023-09-19T03:48:58;99921.91;;;17.26;53.83
43488;BME280;29078;41.932;25.554;2023-09-19T03:51:23;99920.84;;;17.33;53.87
43488;BME280;29078;41.932;25.554;2023-09-19T03:53:48;99927.81;;;17.34;53.47
43488;BME280;29078;41.932;25.554;2023-09-19T03:56:16;99920.25;;;17.31;53.97
43488;BME280;29078;41.932;25.554;2023-09-19T03:58:42;99924.59;;;17.26;54.44
43488;BME280;29078;41.932;25.554;2023-09-19T04:01:07;99918.03;;;17.22;54.58
43488;BME280;29078;41.932;25.554;2023-09-19T04:03:33;99929.75;;;17.21;54.41
43488;BME280;29078;41.932;25.554;2023-09-19T04:06:14;99925.03;;;17.16;54.16
43488;BME280;29078;41.932;25.554;2023-09-19T04:08:42;99934.50;;;17.12;54.49
43488;BME280;29078;41.932;25.554;2023-09-19T04:11:08;99931.81;;;17.12;54.11
43488;BME280;29078;41.932;25.554;2023-09-19T04:13:34;99925.66;;;17.11;54.14
43488;BME280;29078;41.932;25.554;2023-09-19T04:15:59;99927.91;;;17.14;54.14
43488;BME280;29078;41.932;25.554;2023-09-19T04:18:25;99937.38;;;17.10;53.63
43488;BME280;29078;41.932;25.554;2023-09-19T04:20:50;99937.16;;;17.12;53.97
43488;BME280;29078;41.932;25.554;2023-09-19T04:23:15;99951.53;;;17.11;53.47
43488;BME280;29078;41.932;25.554;2023-09-19T04:25:41;99949.66;;;17.05;53.91
43488;BME280;29078;41.932;25.554;2023-09-19T04:28:06;99944.75;;;17.02;54.21
43488;BME280;29078;41.932;25.554;2023-09-19T04:30:31;99961.97;;;17.06;54.17
43488;BME280;29078;41.932;25.554;2023-09-19T04:32:56;99952.75;;;17.02;54.77
43488;BME280;29078;41.932;25.554;2023-09-19T04:35:22;99957.28;;;16.95;54.13
43488;BME280;29078;41.932;25.554;2023-09-19T04:37:47;99954.66;;;16.88;54.92
43488;BME280;29078;41.932;25.554;2023-09-19T04:40:13;99955.06;;;16.85;55.09
43488;BME280;29078;41.932;25.554;2023-09-19T04:42:43;99946.44;;;16.83;55.26
43488;BME280;29078;41.932;25.554;2023-09-19T04:45:08;99948.28;;;16.89;55.24
43488;BME280;29078;41.932;25.554;2023-09-19T04:47:35;99942.69;;;17.04;55.06
43488;BME280;29078;41.932;25.554;2023-09-19T04:50:00;99948.22;;;17.09;54.45
43488;BME280;29078;41.932;25.554;2023-09-19T04:52:25;99935.09;;;17.14;55.19
43488;BME280;29078;41.932;25.554;2023-09-19T04:54:50;99945.13;;;17.19;54.03
43488;BME280;29078;41.932;25.554;2023-09-19T04:57:16;99946.34;;;17.23;53.92
43488;BME280;29078;41.932;25.554;2023-09-19T04:59:41;99949.22;;;17.28;54.63
43488;BME280;29078;41.932;25.554;2023-09-19T05:02:06;99951.03;;;17.34;54.59
43488;BME280;29078;41.932;25.554;2023-09-19T05:04:35;99950.81;;;17.35;55.49
43488;BME280;29078;41.932;25.554;2023-09-19T05:07:00;99950.38;;;17.38;54.86
43488;BME280;29078;41.932;25.554;2023-09-19T05:09:29;99949.94;;;17.48;54.43
43488;BME280;29078;41.932;25.554;2023-09-19T05:11:54;99949.50;;;17.51;54.78
43488;BME280;29078;41.932;25.554;2023-09-19T05:14:19;99951.50;;;17.62;54.59
43488;BME280;29078;41.932;25.554;2023-09-19T05:16:46;99949.66;;;17.69;54.44
43488;BME280;29078;41.932;25.554;2023-09-19T05:19:11;99945.09;;;17.76;54.13
43488;BME280;29078;41.932;25.554;2023-09-19T05:21:37;99949.78;;;17.81;54.92
43488;BME280;29078;41.932;25.554;2023-09-19T05:24:04;99941.75;;;17.88;56.16
43488;BME280;29078;41.932;25.554;2023-09-19T05:26:31;99956.31;;;17.92;54.91
43488;BME280;29078;41.932;25.554;2023-09-19T05:28:56;99951.97;;;17.97;55.77
43488;BME280;29078;41.932;25.554;2023-09-19T05:31:22;99948.00;;;18.06;55.06
43488;BME280;29078;41.932;25.554;2023-09-19T05:33:48;99947.94;;;18.13;55.21
43488;BME280;29078;41.932;25.554;2023-09-19T05:36:14;99948.94;;;18.19;56.10
43488;BME280;29078;41.932;25.554;2023-09-19T05:38:40;99950.50;;;18.26;55.23
43488;BME280;29078;41.932;25.554;2023-09-19T05:41:07;99947.78;;;18.33;55.85
43488;BME280;29078;41.932;25.554;2023-09-19T05:43:34;99956.56;;;18.40;54.25
43488;BME280;29078;41.932;25.554;2023-09-19T05:46:02;99949.09;;;18.49;55.36
43488;BME280;29078;41.932;25.554;2023-09-19T05:48:28;99942.22;;;18.59;54.64
43488;BME280;29078;41.932;25.554;2023-09-19T05:50:53;99944.66;;;18.67;54.92
43488;BME280;29078;41.932;25.554;2023-09-19T05:53:18;99943.75;;;18.73;55.17
43488;BME280;29078;41.932;25.554;2023-09-19T05:55:43;99948.44;;;18.78;54.55
43488;BME280;29078;41.932;25.554;2023-09-19T05:58:09;99947.13;;;18.87;54.05
43488;BME280;29078;41.932;25.554;2023-09-19T06:00:35;99949.88;;;18.99;54.08
43488;BME280;29078;41.932;25.554;2023-09-19T06:03:01;99941.91;;;19.11;54.20
43488;BME280;29078;41.932;25.554;2023-09-19T06:05:27;99939.31;;;19.22;54.13
43488;BME280;29078;41.932;25.554;2023-09-19T06:07:53;99941.03;;;19.35;54.06
43488;BME280;29078;41.932;25.554;2023-09-19T06:10:18;99939.75;;;19.38;53.37
43488;BME280;29078;41.932;25.554;2023-09-19T06:12:46;99941.53;;;19.44;53.16
43488;BME280;29078;41.932;25.554;2023-09-19T06:15:12;99933.28;;;19.45;53.80
43488;BME280;29078;41.932;25.554;2023-09-19T06:17:50;99926.81;;;19.53;53.96
43488;BME280;29078;41.932;25.554;2023-09-19T06:20:16;99945.03;;;19.62;54.18
43488;BME280;29078;41.932;25.554;2023-09-19T06:22:45;99925.94;;;19.71;52.87
43488;BME280;29078;41.932;25.554;2023-09-19T06:25:11;99933.88;;;19.77;53.38
43488;BME280;29078;41.932;25.554;2023-09-19T06:27:39;99928.44;;;19.84;53.56
43488;BME280;29078;41.932;25.554;2023-09-19T06:30:09;99934.28;;;19.92;53.50
43488;BME280;29078;41.932;25.554;2023-09-19T06:32:34;99936.41;;;20.02;53.39
43488;BME280;29078;41.932;25.554;2023-09-19T06:35:00;99936.69;;;20.12;53.67
43488;BME280;29078;41.932;25.554;2023-09-19T06:37:28;99937.41;;;20.19;53.20
43488;BME280;29078;41.932;25.554;2023-09-19T06:39:53;99935.28;;;20.21;52.35
43488;BME280;29078;41.932;25.554;2023-09-19T06:42:19;99932.28;;;20.29;53.33
43488;BME280;29078;41.932;25.554;2023-09-19T06:44:44;99937.28;;;20.38;52.30
43488;BME280;29078;41.932;25.554;2023-09-19T06:47:09;99931.03;;;20.44;52.74
43488;BME280;29078;41.932;25.554;2023-09-19T06:49:35;99934.41;;;20.51;52.45
43488;BME280;29078;41.932;25.554;2023-09-19T06:52:01;99925.31;;;20.52;53.16
43488;BME280;29078;41.932;25.554;2023-09-19T06:54:27;99924.25;;;20.65;52.12
43488;BME280;29078;41.932;25.554;2023-09-19T06:56:59;99923.44;;;20.76;51.56
43488;BME280;29078;41.932;25.554;2023-09-19T06:59:25;99929.97;;;20.80;52.03
43488;BME280;29078;41.932;25.554;2023-09-19T07:01:50;99922.16;;;20.90;51.81
43488;BME280;29078;41.932;25.554;2023-09-19T07:04:16;99920.75;;;20.99;51.54
43488;BME280;29078;41.932;25.554;2023-09-19T07:06:42;99927.03;;;21.05;51.12
43488;BME280;29078;41.932;25.554;2023-09-19T07:09:07;99926.66;;;21.13;51.09
43488;BME280;29078;41.932;25.554;2023-09-19T07:11:33;99916.84;;;21.18;50.88
43488;BME280;29078;41.932;25.554;2023-09-19T07:13:59;99920.00;;;21.27;50.46
43488;BME280;29078;41.932;25.554;2023-09-19T07:16:24;99917.75;;;21.36;50.47
43488;BME280;29078;41.932;25.554;2023-09-19T07:18:54;99917.34;;;21.44;49.97
43488;BME280;29078;41.932;25.554;2023-09-19T07:21:21;99907.03;;;21.52;50.00
43488;BME280;29078;41.932;25.554;2023-09-19T07:23:47;99914.16;;;21.59;49.70
43488;BME280;29078;41.932;25.554;2023-09-19T07:26:12;99915.91;;;21.65;49.70
43488;BME280;29078;41.932;25.554;2023-09-19T07:28:38;99907.44;;;21.73;49.82
43488;BME280;29078;41.932;25.554;2023-09-19T07:31:03;99908.09;;;21.80;49.43
43488;BME280;29078;41.932;25.554;2023-09-19T07:33:30;99897.44;;;21.85;49.60
43488;BME280;29078;41.932;25.554;2023-09-19T07:35:55;99899.16;;;21.91;49.26
43488;BME280;29078;41.932;25.554;2023-09-19T07:38:20;99889.22;;;21.92;49.59
43488;BME280;29078;41.932;25.554;2023-09-19T07:40:46;99884.25;;;22.00;49.49
43488;BME280;29078;41.932;25.554;2023-09-19T07:43:11;99885.25;;;22.11;49.19
43488;BME280;29078;41.932;25.554;2023-09-19T07:45:37;99885.41;;;22.21;48.71
43488;BME280;29078;41.932;25.554;2023-09-19T07:48:02;99892.25;;;22.29;49.08
43488;BME280;29078;41.932;25.554;2023-09-19T07:50:29;99884.03;;;22.35;48.97
43488;BME280;29078;41.932;25.554;2023-09-19T07:52:55;99881.41;;;22.40;48.80
43488;BME280;29078;41.932;25.554;2023-09-19T07:55:21;99880.13;;;22.43;48.50
43488;BME280;29078;41.932;25.554;2023-09-19T07:57:50;99878.56;;;22.47;48.64
43488;BME280;29078;41.932;25.554;2023-09-19T08:00:15;99870.88;;;22.56;48.54
43488;BME280;29078;41.932;25.554;2023-09-19T08:02:41;99869.88;;;22.62;48.75
43488;BME280;29078;41.932;25.554;2023-09-19T08:05:07;99861.06;;;22.66;48.50
43488;BME280;29078;41.932;25.554;2023-09-19T08:07:38;99862.81;;;22.77;48.30
43488;BME280;29078;41.932;25.554;2023-09-19T08:10:04;99872.38;;;22.85;48.00
43488;BME280;29078;41.932;25.554;2023-09-19T08:12:29;99874.88;;;22.92;47.33
43488;BME280;29078;41.932;25.554;2023-09-19T08:14:55;99863.34;;;22.96;47.17
43488;BME280;29078;41.932;25.554;2023-09-19T08:17:20;99870.34;;;22.97;46.76
43488;BME280;29078;41.932;25.554;2023-09-19T08:19:47;99860.47;;;23.03;46.66
43488;BME280;29078;41.932;25.554;2023-09-19T08:22:14;99869.34;;;23.03;46.46
43488;BME280;29078;41.932;25.554;2023-09-19T08:24:42;99860.34;;;23.14;46.50
43488;BME280;29078;41.932;25.554;2023-09-19T08:27:08;99850.00;;;23.28;46.02
43488;BME280;29078;41.932;25.554;2023-09-19T08:29:35;99859.59;;;23.46;46.10
43488;BME280;29078;41.932;25.554;2023-09-19T08:32:00;99852.50;;;23.62;45.02
43488;BME280;29078;41.932;25.554;2023-09-19T08:34:26;99848.06;;;23.77;44.76
43488;BME280;29078;41.932;25.554;2023-09-19T08:36:51;99841.19;;;23.92;44.97
43488;BME280;29078;41.932;25.554;2023-09-19T08:39:20;99839.13;;;24.04;43.75
43488;BME280;29078;41.932;25.554;2023-09-19T08:41:45;99836.78;;;24.18;44.64
43488;BME280;29078;41.932;25.554;2023-09-19T08:44:10;99828.16;;;24.21;42.86
43488;BME280;29078;41.932;25.554;2023-09-19T08:46:35;99826.88;;;24.28;43.05
43488;BME280;29078;41.932;25.554;2023-09-19T08:49:04;99828.88;;;24.48;43.33
43488;BME280;29078;41.932;25.554;2023-09-19T08:51:33;99823.91;;;24.72;43.07
43488;BME280;29078;41.932;25.554;2023-09-19T08:56:28;99821.59;;;25.06;41.46
43488;BME280;29078;41.932;25.554;2023-09-19T08:58:55;99823.25;;;25.22;42.28
43488;BME280;29078;41.932;25.554;2023-09-19T09:01:23;99819.53;;;25.28;41.09
43488;BME280;29078;41.932;25.554;2023-09-19T09:03:53;99834.41;;;25.41;42.42
43488;BME280;29078;41.932;25.554;2023-09-19T09:06:22;99820.06;;;25.46;40.07
43488;BME280;29078;41.932;25.554;2023-09-19T09:08:48;99816.56;;;25.50;41.26
43488;BME280;29078;41.932;25.554;2023-09-19T09:11:13;99827.66;;;25.59;40.26
43488;BME280;29078;41.932;25.554;2023-09-19T09:13:39;99812.81;;;25.67;40.83
43488;BME280;29078;41.932;25.554;2023-09-19T09:16:06;99803.63;;;25.83;39.95
43488;BME280;29078;41.932;25.554;2023-09-19T09:18:31;99805.50;;;26.13;39.89
43488;BME280;29078;41.932;25.554;2023-09-19T09:20:57;99792.19;;;26.37;39.70
43488;BME280;29078;41.932;25.554;2023-09-19T09:23:22;99788.03;;;26.59;40.02
43488;BME280;29078;41.932;25.554;2023-09-19T09:25:48;99787.44;;;26.78;38.75
43488;BME280;29078;41.932;25.554;2023-09-19T09:28:20;99785.19;;;26.95;37.80
43488;BME280;29078;41.932;25.554;2023-09-19T09:30:46;99782.09;;;27.17;38.83
43488;BME280;29078;41.932;25.554;2023-09-19T09:33:12;99780.03;;;27.38;37.73
43488;BME280;29078;41.932;25.554;2023-09-19T09:35:47;99778.06;;;27.53;36.73
43488;BME280;29078;41.932;25.554;2023-09-19T09:38:17;99778.72;;;27.74;38.17
43488;BME280;29078;41.932;25.554;2023-09-19T09:40:50;99776.38;;;27.92;35.72
43488;BME280;29078;41.932;25.554;2023-09-19T09:46:08;99771.75;;;27.92;35.28
43488;BME280;29078;41.932;25.554;2023-09-19T09:48:36;99766.03;;;27.94;35.45
43488;BME280;29078;41.932;25.554;2023-09-19T09:51:04;99760.78;;;28.02;35.71
43488;BME280;29078;41.932;25.554;2023-09-19T09:53:32;99761.53;;;28.08;35.18
43488;BME280;29078;41.932;25.554;2023-09-19T09:55:59;99757.09;;;28.17;34.38
43488;BME280;29078;41.932;25.554;2023-09-19T09:58:34;99754.56;;;28.31;36.36
43488;BME280;29078;41.932;25.554;2023-09-19T10:01:00;99758.69;;;28.47;36.39
43488;BME280;29078;41.932;25.554;2023-09-19T10:03:45;99752.41;;;28.52;35.89
43488;BME280;29078;41.932;25.554;2023-09-19T10:06:16;99753.72;;;28.54;35.84
43488;BME280;29078;41.932;25.554;2023-09-19T10:09:02;99752.03;;;28.58;36.10
43488;BME280;29078;41.932;25.554;2023-09-19T10:11:31;99741.78;;;28.74;33.82
43488;BME280;29078;41.932;25.554;2023-09-19T10:13:57;99738.13;;;28.84;33.40
43488;BME280;29078;41.932;25.554;2023-09-19T10:16:26;99747.47;;;28.96;32.93
43488;BME280;29078;41.932;25.554;2023-09-19T10:18:56;99732.13;;;29.05;33.12
43488;BME280;29078;41.932;25.554;2023-09-19T10:21:23;99731.38;;;29.19;33.39
43488;BME280;29078;41.932;25.554;2023-09-19T10:23:49;99724.06;;;29.33;33.38
43488;BME280;29078;41.932;25.554;2023-09-19T10:26:17;99722.66;;;29.54;33.60
43488;BME280;29078;41.932;25.554;2023-09-19T10:28:42;99717.44;;;29.71;32.47
43488;BME280;29078;41.932;25.554;2023-09-19T10:31:09;99708.41;;;29.90;31.17
43488;BME280;29078;41.932;25.554;2023-09-19T10:33:39;99714.09;;;30.07;31.54
43488;BME280;29078;41.932;25.554;2023-09-19T10:36:06;99716.72;;;30.12;32.19
43488;BME280;29078;41.932;25.554;2023-09-19T10:38:31;99713.38;;;30.15;31.42
43488;BME280;29078;41.932;25.554;2023-09-19T10:40:58;99702.06;;;30.35;30.21
43488;BME280;29078;41.932;25.554;2023-09-19T10:43:25;99702.25;;;30.53;31.02
43488;BME280;29078;41.932;25.554;2023-09-19T10:45:51;99694.59;;;30.69;30.11
43488;BME280;29078;41.932;25.554;2023-09-19T10:48:18;99688.09;;;30.78;29.64
43488;BME280;29078;41.932;25.554;2023-09-19T10:53:38;99684.38;;;30.96;30.39
43488;BME280;29078;41.932;25.554;2023-09-19T10:56:06;99691.19;;;31.08;29.41
43488;BME280;29078;41.932;25.554;2023-09-19T10:58:42;99672.16;;;31.30;29.75
43488;BME280;29078;41.932;25.554;2023-09-19T11:01:09;99678.00;;;31.46;29.87
43488;BME280;29078;41.932;25.554;2023-09-19T11:03:37;99675.50;;;31.58;29.00
43488;BME280;29078;41.932;25.554;2023-09-19T11:06:17;99675.75;;;31.70;29.87
43488;BME280;29078;41.932;25.554;2023-09-19T11:09:02;99666.47;;;31.80;29.26
43488;BME280;29078;41.932;25.554;2023-09-19T11:16:39;99650.66;;;31.99;27.70
43488;BME280;29078;41.932;25.554;2023-09-19T11:19:04;99646.00;;;32.00;27.19
43488;BME280;29078;41.932;25.554;2023-09-19T11:26:57;99651.63;;;32.03;28.05
43488;BME280;29078;41.932;25.554;2023-09-19T11:29:33;99652.59;;;32.07;29.52
43488;BME280;29078;41.932;25.554;2023-09-19T11:31:58;99643.78;;;32.10;27.81
43488;BME280;29078;41.932;25.554;2023-09-19T11:37:01;99629.81;;;32.20;25.64
43488;BME280;29078;41.932;25.554;2023-09-19T11:39:29;99629.16;;;32.23;28.18
43488;BME280;29078;41.932;25.554;2023-09-19T11:41:55;99624.81;;;32.14;28.27
43488;BME280;29078;41.932;25.554;2023-09-19T11:49:17;99607.75;;;32.00;27.22
43488;BME280;29078;41.932;25.554;2023-09-19T11:51:46;99608.34;;;31.88;27.07
43488;BME280;29078;41.932;25.554;2023-09-19T11:54:13;99600.22;;;31.66;26.63
43488;BME280;29078;41.932;25.554;2023-09-19T11:56:48;99599.56;;;31.60;27.67
43488;BME280;29078;41.932;25.554;2023-09-19T11:59:20;99596.63;;;31.48;26.81
43488;BME280;29078;41.932;25.554;2023-09-19T12:01:51;99598.00;;;31.28;29.23
43488;BME280;29078;41.932;25.554;2023-09-19T12:04:22;99588.84;;;31.10;25.74
43488;BME280;29078;41.932;25.554;2023-09-19T12:06:58;99591.47;;;30.93;29.92
43488;BME280;29078;41.932;25.554;2023-09-19T12:09:24;99591.31;;;30.67;27.83
43488;BME280;29078;41.932;25.554;2023-09-19T12:11:50;99578.03;;;30.52;28.30
43488;BME280;29078;41.932;25.554;2023-09-19T12:14:23;99582.19;;;30.35;28.59
43488;BME280;29078;41.932;25.554;2023-09-19T12:16:56;99570.53;;;30.21;28.06
43488;BME280;29078;41.932;25.554;2023-09-19T12:19:22;99571.47;;;30.17;30.09
43488;BME280;29078;41.932;25.554;2023-09-19T12:21:58;99565.00;;;30.13;29.05
43488;BME280;29078;41.932;25.554;2023-09-19T12:24:25;99554.84;;;29.91;27.62
43488;BME280;29078;41.932;25.554;2023-09-19T12:26:54;99557.59;;;29.77;29.47
43488;BME280;29078;41.932;25.554;2023-09-19T12:29:22;99560.81;;;29.79;29.45
43488;BME280;29078;41.932;25.554;2023-09-19T12:31:52;99558.09;;;29.79;30.64
43488;BME280;29078;41.932;25.554;2023-09-19T12:34:20;99546.72;;;29.77;29.54
43488;BME280;29078;41.932;25.554;2023-09-19T12:36:46;99544.88;;;29.86;30.08
43488;BME280;29078;41.932;25.554;2023-09-19T12:39:21;99549.91;;;29.93;29.72
43488;BME280;29078;41.932;25.554;2023-09-19T12:41:48;99546.09;;;29.80;29.54
43488;BME280;29078;41.932;25.554;2023-09-19T12:44:13;99542.56;;;29.80;29.87
43488;BME280;29078;41.932;25.554;2023-09-19T12:46:40;99546.72;;;29.77;29.97
43488;BME280;29078;41.932;25.554;2023-09-19T12:49:17;99535.91;;;29.72;30.32
43488;BME280;29078;41.932;25.554;2023-09-19T12:51:42;99541.16;;;29.55;29.42
43488;BME280;29078;41.932;25.554;2023-09-19T12:54:08;99542.03;;;29.36;29.28
43488;BME280;29078;41.932;25.554;2023-09-19T12:56:41;99535.28;;;29.20;30.23
43488;BME280;29078;41.932;25.554;2023-09-19T12:59:11;99538.31;;;29.19;30.79
43488;BME280;29078;41.932;25.554;2023-09-19T13:01:38;99535.38;;;29.29;28.72
43488;BME280;29078;41.932;25.554;2023-09-19T13:04:13;99533.38;;;29.34;29.86
43488;BME280;29078;41.932;25.554;2023-09-19T13:06:43;99528.13;;;29.38;29.35
43488;BME280;29078;41.932;25.554;2023-09-19T13:09:09;99530.47;;;29.31;29.76
43488;BME280;29078;41.932;25.554;2023-09-19T13:11:38;99523.72;;;29.28;29.57
43488;BME280;29078;41.932;25.554;2023-09-19T13:19:34;99514.13;;;29.72;30.01
43488;BME280;29078;41.932;25.554;2023-09-19T13:22:00;99510.88;;;29.97;28.80
43488;BME280;29078;41.932;25.554;2023-09-19T13:24:25;99521.13;;;30.14;29.74
43488;BME280;29078;41.932;25.554;2023-09-19T13:26:52;99517.06;;;30.25;28.28
43488;BME280;29078;41.932;25.554;2023-09-19T13:29:18;99517.81;;;30.40;29.19
43488;BME280;29078;41.932;25.554;2023-09-19T13:31:47;99511.63;;;30.48;27.52
43488;BME280;29078;41.932;25.554;2023-09-19T13:34:12;99515.84;;;30.54;28.11
43488;BME280;29078;41.932;25.554;2023-09-19T13:36:40;99511.66;;;30.70;26.21
43488;BME280;29078;41.932;25.554;2023-09-19T13:39:06;99512.06;;;30.86;27.23
43488;BME280;29078;41.932;25.554;2023-09-19T13:41:34;99514.00;;;31.16;27.29
43488;BME280;29078;41.932;25.554;2023-09-19T13:44:01;99512.66;;;31.36;28.41